createdAt,value
2023-02-04T00:03:33.659Z,5.63
2023-02-04T00:08:37.650Z,5.22
2023-02-04T00:13:40.508Z,5.68
2023-02-04T00:18:43.104Z,5.78
2023-02-04T00:23:45.642Z,5.82
2023-02-04T00:28:48.460Z,5.43
2023-02-04T00:33:52.535Z,5.63
2023-02-04T00:38:55.356Z,5.78
2023-02-04T00:43:57.922Z,5.35
2023-02-04T00:49:00.553Z,5.80
2023-02-04T00:54:03.064Z,6.15
2023-02-04T00:59:05.637Z,5.78
2023-02-04T01:04:08.326Z,6.32
2023-02-04T01:09:11.823Z,6.07
2023-02-04T01:14:14.386Z,6.15
2023-02-04T01:19:17.453Z,6.25
2023-02-04T01:24:19.979Z,6.03
2023-02-04T01:29:41.305Z,5.60
2023-02-04T01:34:43.866Z,5.97
2023-02-04T01:39:46.701Z,5.88
2023-02-04T01:44:49.792Z,5.93
2023-02-04T01:49:54.762Z,6.25
2023-02-04T01:54:57.289Z,5.72
2023-02-04T01:59:59.839Z,5.65
2023-02-04T02:05:03.249Z,6.10
2023-02-04T02:10:08.055Z,6.15
2023-02-04T02:15:13.905Z,6.00
2023-02-04T02:20:18.011Z,5.78
2023-02-04T02:25:20.648Z,6.10
2023-02-04T02:30:23.699Z,6.05
2023-02-04T02:35:26.359Z,6.22
2023-02-04T02:40:29.390Z,5.68
2023-02-04T02:45:34.294Z,5.88
2023-02-04T02:50:37.304Z,6.30
2023-02-04T02:55:40.610Z,5.72
2023-02-04T03:00:44.451Z,6.90
2023-02-04T03:05:52.974Z,5.75
2023-02-04T03:10:56.757Z,6.13
2023-02-04T03:16:00.581Z,5.75
2023-02-04T03:21:05.938Z,6.85
2023-02-04T03:26:08.663Z,6.13
2023-02-04T03:31:11.494Z,7.25
2023-02-04T03:36:14.159Z,6.20
2023-02-04T03:41:16.896Z,6.82
2023-02-04T03:46:19.583Z,7.60
2023-02-04T03:51:22.338Z,7.07
2023-02-04T03:56:25.109Z,7.38
2023-02-04T04:01:27.701Z,8.25
2023-02-04T04:06:31.581Z,7.32
2023-02-04T04:11:34.121Z,7.25
2023-02-04T04:16:36.742Z,7.88
2023-02-04T04:21:39.346Z,7.47
2023-02-04T04:26:41.880Z,7.30
2023-02-04T04:31:45.163Z,7.50
2023-02-04T04:36:47.771Z,7.53
2023-02-04T04:41:50.304Z,7.75
2023-02-04T04:46:52.924Z,7.78
2023-02-04T04:51:55.645Z,7.60
2023-02-04T04:56:58.196Z,7.03
2023-02-04T05:02:00.756Z,7.50
2023-02-04T05:07:03.430Z,7.15
2023-02-04T05:12:06.352Z,6.70
2023-02-04T05:17:08.936Z,7.32
2023-02-04T05:22:11.611Z,7.65
2023-02-04T05:27:14.471Z,7.30
2023-02-04T05:32:17.003Z,10.20
2023-02-04T05:37:21.129Z,7.93
2023-02-04T05:42:23.770Z,7.80
2023-02-04T05:47:26.324Z,7.28
2023-02-04T05:52:28.970Z,8.00
2023-02-04T05:57:31.625Z,7.05
2023-02-04T06:02:34.218Z,7.80
2023-02-04T06:07:36.864Z,7.38
2023-02-04T06:12:39.499Z,7.57
2023-02-04T06:17:42.102Z,8.15
2023-02-04T06:22:44.702Z,8.13
2023-02-04T06:27:47.449Z,9.05
2023-02-04T06:32:50.035Z,8.88
2023-02-04T06:37:52.559Z,9.70
2023-02-04T06:42:55.142Z,8.45
2023-02-04T06:47:57.700Z,9.38
2023-02-04T06:53:00.368Z,9.40
2023-02-04T06:58:03.015Z,8.98
2023-02-04T07:03:07.522Z,9.73
2023-02-04T07:08:10.097Z,9.55
2023-02-04T07:13:12.730Z,10.13
2023-02-04T07:18:15.458Z,10.23
2023-02-04T07:23:18.018Z,10.30
2023-02-04T07:28:20.592Z,10.20
2023-02-04T07:33:23.690Z,10.70
2023-02-04T07:38:26.232Z,10.98
2023-02-04T07:43:28.706Z,10.88
2023-02-04T07:48:31.298Z,10.93
2023-02-04T07:53:33.926Z,11.27
2023-02-04T07:58:36.716Z,11.88
2023-02-04T08:03:41.627Z,13.18
2023-02-04T08:08:44.484Z,12.02
2023-02-04T08:13:47.111Z,12.75
2023-02-04T08:18:49.668Z,11.48
2023-02-04T08:23:52.454Z,11.20
2023-02-04T08:28:55.067Z,11.70
2023-02-04T08:33:58.072Z,10.77
2023-02-04T08:39:00.817Z,11.20
2023-02-04T08:44:03.486Z,10.77
2023-02-04T08:49:06.111Z,10.32
2023-02-04T08:54:08.699Z,10.48
2023-02-04T08:59:12.120Z,9.82
2023-02-04T09:04:15.217Z,10.85
2023-02-04T09:09:18.867Z,10.68
2023-02-04T09:14:22.224Z,10.80
2023-02-04T09:19:26.167Z,9.70
2023-02-04T09:24:28.892Z,9.75
2023-02-04T09:29:31.548Z,10.88
2023-02-04T09:34:34.132Z,9.55
2023-02-04T09:39:36.705Z,10.05
2023-02-04T09:44:39.375Z,9.20
2023-02-04T09:49:47.012Z,9.00
2023-02-04T09:54:49.645Z,9.32
2023-02-04T09:59:56.694Z,9.05
2023-02-04T10:04:59.213Z,9.73
2023-02-04T10:10:01.862Z,9.68
2023-02-04T10:15:11.137Z,10.40
2023-02-04T10:20:22.380Z,10.68
2023-02-04T10:25:26.400Z,12.40
2023-02-04T10:30:35.985Z,12.00
2023-02-04T10:35:48.233Z,14.00
2023-02-04T10:41:05.917Z,13.77
2023-02-04T10:46:08.729Z,15.48
2023-02-04T10:51:13.437Z,14.80
2023-02-04T10:56:21.831Z,16.70
2023-02-04T11:01:28.897Z,15.57
2023-02-04T11:06:31.779Z,14.70
2023-02-04T11:11:34.771Z,14.10
2023-02-04T11:16:48.872Z,15.02
2023-02-04T11:21:51.661Z,15.10
2023-02-04T11:27:09.172Z,14.90
2023-02-04T11:32:38.100Z,15.40
2023-02-04T11:37:43.470Z,16.10
2023-02-04T11:42:46.356Z,15.82
2023-02-04T11:47:50.843Z,14.98
2023-02-04T11:52:55.062Z,15.38
2023-02-04T11:57:58.537Z,15.55
2023-02-04T12:03:06.792Z,16.00
2023-02-04T12:08:33.772Z,15.77
2023-02-04T12:13:50.050Z,16.38
2023-02-04T12:18:52.628Z,16.33
2023-02-04T12:23:55.562Z,16.55
2023-02-04T12:29:01.658Z,16.10
2023-02-04T12:34:04.400Z,16.73
2023-02-04T12:39:06.986Z,17.35
2023-02-04T12:44:10.986Z,16.52
2023-02-04T12:49:13.561Z,16.80
2023-02-04T12:54:16.453Z,17.63
2023-02-04T12:59:19.337Z,18.10
2023-02-04T13:04:24.649Z,17.33
2023-02-04T13:09:27.878Z,18.30
2023-02-04T13:14:30.659Z,16.80
2023-02-04T13:19:36.614Z,17.15
2023-02-04T13:24:42.086Z,16.80
2023-02-04T13:29:45.697Z,16.88
2023-02-04T13:34:48.601Z,17.35
2023-02-04T13:39:51.615Z,17.77
2023-02-04T13:44:55.564Z,17.98
2023-02-04T13:50:01.395Z,17.13
2023-02-04T13:55:06.401Z,17.27
2023-02-04T14:00:09.884Z,15.20
2023-02-04T14:05:16.137Z,16.52
2023-02-04T14:10:18.922Z,16.10
2023-02-04T14:15:21.663Z,16.40
2023-02-04T14:20:24.251Z,15.98
2023-02-04T14:25:26.901Z,16.13
2023-02-04T14:30:30.447Z,15.00
2023-02-04T14:35:33.157Z,14.70
2023-02-04T14:40:35.775Z,14.75
2023-02-04T14:45:40.184Z,14.82
2023-02-04T14:50:42.775Z,14.27
2023-02-04T14:55:45.978Z,14.57
2023-02-04T15:00:48.498Z,14.23
2023-02-04T15:05:51.231Z,15.57
2023-02-04T15:10:53.885Z,15.05
2023-02-04T15:15:56.842Z,15.70
2023-02-04T15:20:59.494Z,14.55
2023-02-04T15:26:02.327Z,20.00
2023-02-04T15:31:05.533Z,18.35
2023-02-04T15:36:08.465Z,17.65
2023-02-04T15:41:11.129Z,17.15
2023-02-04T15:46:13.753Z,14.13
2023-02-04T15:51:16.486Z,15.10
2023-02-04T15:56:21.322Z,14.50
2023-02-04T16:01:23.961Z,15.25
2023-02-04T16:06:26.760Z,14.15
2023-02-04T16:11:29.388Z,14.10
2023-02-04T16:16:34.403Z,13.82
2023-02-04T16:21:36.967Z,13.23
2023-02-04T16:26:39.532Z,14.85
2023-02-04T16:31:42.233Z,13.55
2023-02-04T16:36:44.799Z,14.98
2023-02-04T16:41:47.362Z,13.93
2023-02-04T16:46:50.879Z,13.75
2023-02-04T16:51:53.710Z,15.00
2023-02-04T16:56:57.007Z,14.13
2023-02-04T17:02:00.817Z,14.93
2023-02-04T17:07:04.324Z,14.50
2023-02-04T17:12:07.356Z,15.38
2023-02-04T17:17:15.519Z,14.52
2023-02-04T17:22:18.748Z,13.88
2023-02-04T17:27:23.952Z,12.82
2023-02-04T17:32:28.107Z,15.90
2023-02-04T17:37:33.421Z,13.68
2023-02-04T17:42:36.976Z,15.00
2023-02-04T17:47:40.228Z,14.35
2023-02-04T17:52:42.963Z,14.15
2023-02-04T17:57:45.670Z,13.85
2023-02-04T18:02:50.124Z,15.63
2023-02-04T18:08:11.544Z,15.20
2023-02-04T18:13:25.638Z,14.00
2023-02-04T18:18:39.959Z,14.40
2023-02-04T18:23:44.358Z,14.75
2023-02-04T18:28:50.946Z,13.40
2023-02-04T18:33:57.834Z,14.65
2023-02-04T18:39:03.817Z,14.30
2023-02-04T18:44:46.646Z,13.52
2023-02-04T18:49:49.334Z,14.43
2023-02-04T18:54:56.479Z,13.82
2023-02-04T19:00:14.650Z,13.35
2023-02-04T19:05:34.501Z,14.57
2023-02-04T19:10:39.619Z,12.60
2023-02-04T19:15:42.454Z,13.18
2023-02-04T19:20:50.223Z,13.60
2023-02-04T19:25:53.179Z,13.40
2023-02-04T19:31:10.568Z,12.65
2023-02-04T19:36:23.666Z,10.80
2023-02-04T19:41:38.592Z,12.35
2023-02-04T19:46:42.507Z,11.43
2023-02-04T19:51:48.733Z,11.70
2023-02-04T19:56:52.429Z,11.70
2023-02-04T20:02:07.420Z,12.48
2023-02-04T20:07:22.031Z,11.95
2023-02-04T20:12:25.410Z,11.48
2023-02-04T20:17:38.980Z,14.30
2023-02-04T20:22:50.167Z,11.48
2023-02-04T20:27:57.227Z,12.48
2023-02-04T20:33:30.843Z,11.65
2023-02-04T20:38:33.447Z,9.90
2023-02-04T20:43:35.999Z,10.52
2023-02-04T20:48:38.741Z,10.35
2023-02-04T20:53:57.883Z,10.98
2023-02-04T20:59:12.592Z,10.10
2023-02-04T21:04:36.829Z,10.57
2023-02-04T21:09:40.235Z,10.27
2023-02-04T21:14:43.039Z,10.20
2023-02-04T21:19:45.705Z,10.23
2023-02-04T21:24:48.908Z,10.15
2023-02-04T21:29:53.882Z,10.05
2023-02-04T21:34:56.503Z,10.75
2023-02-04T21:39:59.078Z,8.90
2023-02-04T21:45:01.624Z,10.00
2023-02-04T21:50:04.628Z,10.20
2023-02-04T21:55:08.270Z,9.57
2023-02-04T22:00:11.553Z,10.52
2023-02-04T22:05:14.209Z,9.82
2023-02-04T22:10:23.899Z,10.50
2023-02-04T22:15:28.182Z,12.43
2023-02-04T22:20:31.141Z,12.43
2023-02-04T22:25:33.962Z,10.88
2023-02-04T22:30:37.922Z,9.77
2023-02-04T22:35:40.711Z,9.32
2023-02-04T22:40:43.423Z,10.23
2023-02-04T22:45:46.028Z,10.48
2023-02-04T22:50:48.708Z,9.43
2023-02-04T22:55:51.268Z,9.55
2023-02-04T23:00:54.077Z,9.48
2023-02-04T23:05:56.740Z,8.93
2023-02-04T23:10:59.519Z,9.25
2023-02-04T23:16:02.475Z,9.85
2023-02-04T23:21:05.513Z,9.82
2023-02-04T23:26:08.401Z,9.25
2023-02-04T23:31:11.353Z,10.48
2023-02-04T23:36:14.114Z,9.82
2023-02-04T23:41:17.219Z,9.70
2023-02-04T23:46:19.926Z,9.43
2023-02-04T23:51:22.477Z,8.60
2023-02-04T23:56:25.092Z,8.63
